sensor_id;sensor_type;location;lat;lon;timestamp;P1;durP1;ratioP1;P2;durP2;ratioP2
50517;SDS011;37075;44.084;2.962;2023-12-28T00:01:58;9.73;;;5.03;;
50517;SDS011;37075;44.084;2.962;2023-12-28T00:04:44;7.85;;;4.32;;
50517;SDS011;37075;44.084;2.962;2023-12-28T00:07:30;7.68;;;3.53;;
50517;SDS011;37075;44.084;2.962;2023-12-28T00:10:16;8.25;;;4.18;;
50517;SDS011;37075;44.084;2.962;2023-12-28T00:13:04;6.75;;;3.22;;
50517;SDS011;37075;44.084;2.962;2023-12-28T00:15:50;12.45;;;5.35;;
50517;SDS011;37075;44.084;2.962;2023-12-28T00:18:36;10.30;;;5.32;;
50517;SDS011;37075;44.084;2.962;2023-12-28T00:21:22;6.18;;;2.72;;
50517;SDS011;37075;44.084;2.962;2023-12-28T00:24:07;6.90;;;3.90;;
50517;SDS011;37075;44.084;2.962;2023-12-28T00:26:53;6.85;;;3.72;;
50517;SDS011;37075;44.084;2.962;2023-12-28T00:29:41;7.68;;;4.38;;
50517;SDS011;37075;44.084;2.962;2023-12-28T00:32:27;4.78;;;3.67;;
50517;SDS011;37075;44.084;2.962;2023-12-28T00:35:13;9.05;;;3.83;;
50517;SDS011;37075;44.084;2.962;2023-12-28T00:37:59;17.50;;;9.57;;
50517;SDS011;37075;44.084;2.962;2023-12-28T00:40:46;18.30;;;8.55;;
50517;SDS011;37075;44.084;2.962;2023-12-28T00:43:32;11.77;;;6.97;;
50517;SDS011;37075;44.084;2.962;2023-12-28T00:46:19;9.77;;;5.53;;
50517;SDS011;37075;44.084;2.962;2023-12-28T00:49:05;8.50;;;4.95;;
50517;SDS011;37075;44.084;2.962;2023-12-28T00:51:52;9.63;;;4.93;;
50517;SDS011;37075;44.084;2.962;2023-12-28T00:54:38;7.97;;;4.40;;
50517;SDS011;37075;44.084;2.962;2023-12-28T00:57:24;9.98;;;4.07;;
50517;SDS011;37075;44.084;2.962;2023-12-28T01:00:10;7.97;;;3.45;;
50517;SDS011;37075;44.084;2.962;2023-12-28T01:02:58;6.30;;;3.75;;
50517;SDS011;37075;44.084;2.962;2023-12-28T01:05:44;5.20;;;2.58;;
50517;SDS011;37075;44.084;2.962;2023-12-28T01:08:31;4.13;;;2.80;;
50517;SDS011;37075;44.084;2.962;2023-12-28T01:11:18;5.18;;;2.33;;
50517;SDS011;37075;44.084;2.962;2023-12-28T01:14:04;5.43;;;2.90;;
50517;SDS011;37075;44.084;2.962;2023-12-28T01:16:51;6.30;;;3.67;;
50517;SDS011;37075;44.084;2.962;2023-12-28T01:19:38;3.70;;;1.95;;
50517;SDS011;37075;44.084;2.962;2023-12-28T01:22:24;7.05;;;2.95;;
50517;SDS011;37075;44.084;2.962;2023-12-28T01:25:10;4.00;;;3.10;;
50517;SDS011;37075;44.084;2.962;2023-12-28T01:27:55;7.75;;;3.50;;
50517;SDS011;37075;44.084;2.962;2023-12-28T01:30:41;4.32;;;2.50;;
50517;SDS011;37075;44.084;2.962;2023-12-28T01:33:28;6.60;;;3.58;;
50517;SDS011;37075;44.084;2.962;2023-12-28T01:36:19;2.90;;;2.25;;
50517;SDS011;37075;44.084;2.962;2023-12-28T01:39:07;4.07;;;2.22;;
50517;SDS011;37075;44.084;2.962;2023-12-28T01:41:55;5.70;;;2.75;;
50517;SDS011;37075;44.084;2.962;2023-12-28T01:44:42;9.48;;;2.83;;
50517;SDS011;37075;44.084;2.962;2023-12-28T01:47:28;4.95;;;2.78;;
50517;SDS011;37075;44.084;2.962;2023-12-28T01:50:15;6.22;;;3.08;;
50517;SDS011;37075;44.084;2.962;2023-12-28T01:53:03;7.80;;;2.38;;
50517;SDS011;37075;44.084;2.962;2023-12-28T01:55:49;7.40;;;1.88;;
50517;SDS011;37075;44.084;2.962;2023-12-28T01:58:36;5.68;;;2.42;;
50517;SDS011;37075;44.084;2.962;2023-12-28T02:01:25;6.43;;;2.53;;
50517;SDS011;37075;44.084;2.962;2023-12-28T02:04:11;5.68;;;3.05;;
50517;SDS011;37075;44.084;2.962;2023-12-28T02:06:58;5.50;;;2.17;;
50517;SDS011;37075;44.084;2.962;2023-12-28T02:09:47;5.00;;;2.40;;
50517;SDS011;37075;44.084;2.962;2023-12-28T02:12:33;6.20;;;3.30;;
50517;SDS011;37075;44.084;2.962;2023-12-28T02:15:19;8.50;;;2.55;;
50517;SDS011;37075;44.084;2.962;2023-12-28T02:18:08;9.40;;;3.08;;
50517;SDS011;37075;44.084;2.962;2023-12-28T02:20:58;8.38;;;2.97;;
50517;SDS011;37075;44.084;2.962;2023-12-28T02:23:48;7.72;;;3.50;;
50517;SDS011;37075;44.084;2.962;2023-12-28T02:26:36;7.25;;;2.30;;
50517;SDS011;37075;44.084;2.962;2023-12-28T02:29:22;4.60;;;2.33;;
50517;SDS011;37075;44.084;2.962;2023-12-28T02:32:08;2.67;;;2.42;;
50517;SDS011;37075;44.084;2.962;2023-12-28T02:34:56;3.75;;;2.10;;
50517;SDS011;37075;44.084;2.962;2023-12-28T02:37:46;7.35;;;2.33;;
50517;SDS011;37075;44.084;2.962;2023-12-28T02:40:37;8.65;;;2.58;;
50517;SDS011;37075;44.084;2.962;2023-12-28T02:43:26;4.47;;;2.83;;
50517;SDS011;37075;44.084;2.962;2023-12-28T02:46:12;3.42;;;2.42;;
50517;SDS011;37075;44.084;2.962;2023-12-28T02:48:58;4.43;;;2.75;;
50517;SDS011;37075;44.084;2.962;2023-12-28T02:51:43;3.67;;;2.00;;
50517;SDS011;37075;44.084;2.962;2023-12-28T02:54:29;6.43;;;2.28;;
50517;SDS011;37075;44.084;2.962;2023-12-28T02:57:15;4.97;;;2.10;;
50517;SDS011;37075;44.084;2.962;2023-12-28T03:00:05;2.73;;;2.10;;
50517;SDS011;37075;44.084;2.962;2023-12-28T03:02:53;4.93;;;1.83;;
50517;SDS011;37075;44.084;2.962;2023-12-28T03:05:39;6.78;;;3.75;;
50517;SDS011;37075;44.084;2.962;2023-12-28T03:08:26;2.63;;;1.73;;
50517;SDS011;37075;44.084;2.962;2023-12-28T03:11:12;4.43;;;2.08;;
50517;SDS011;37075;44.084;2.962;2023-12-28T03:13:57;3.35;;;1.85;;
50517;SDS011;37075;44.084;2.962;2023-12-28T03:16:45;3.83;;;2.33;;
50517;SDS011;37075;44.084;2.962;2023-12-28T03:19:31;3.37;;;2.00;;
50517;SDS011;37075;44.084;2.962;2023-12-28T03:22:17;2.90;;;2.03;;
50517;SDS011;37075;44.084;2.962;2023-12-28T03:25:03;4.10;;;2.45;;
50517;SDS011;37075;44.084;2.962;2023-12-28T03:27:50;4.75;;;2.05;;
50517;SDS011;37075;44.084;2.962;2023-12-28T03:30:37;4.97;;;1.73;;
50517;SDS011;37075;44.084;2.962;2023-12-28T03:33:26;5.90;;;2.40;;
50517;SDS011;37075;44.084;2.962;2023-12-28T03:39:03;5.13;;;1.92;;
50517;SDS011;37075;44.084;2.962;2023-12-28T03:41:50;6.75;;;1.58;;
50517;SDS011;37075;44.084;2.962;2023-12-28T03:44:38;2.05;;;1.60;;
50517;SDS011;37075;44.084;2.962;2023-12-28T03:47:23;3.20;;;1.30;;
50517;SDS011;37075;44.084;2.962;2023-12-28T03:50:11;2.92;;;2.38;;
50517;SDS011;37075;44.084;2.962;2023-12-28T03:52:57;3.15;;;2.22;;
50517;SDS011;37075;44.084;2.962;2023-12-28T03:55:43;9.55;;;1.85;;
50517;SDS011;37075;44.084;2.962;2023-12-28T03:58:29;2.72;;;1.58;;
50517;SDS011;37075;44.084;2.962;2023-12-28T04:01:15;3.38;;;2.45;;
50517;SDS011;37075;44.084;2.962;2023-12-28T04:04:02;4.07;;;1.53;;
50517;SDS011;37075;44.084;2.962;2023-12-28T04:06:50;10.57;;;2.00;;
50517;SDS011;37075;44.084;2.962;2023-12-28T04:09:37;1.95;;;1.00;;
50517;SDS011;37075;44.084;2.962;2023-12-28T04:12:23;4.75;;;2.15;;
50517;SDS011;37075;44.084;2.962;2023-12-28T04:15:09;3.40;;;1.60;;
50517;SDS011;37075;44.084;2.962;2023-12-28T04:17:55;12.25;;;2.28;;
50517;SDS011;37075;44.084;2.962;2023-12-28T04:20:42;2.15;;;1.58;;
50517;SDS011;37075;44.084;2.962;2023-12-28T04:23:32;3.42;;;1.45;;
50517;SDS011;37075;44.084;2.962;2023-12-28T04:29:05;4.18;;;2.90;;
50517;SDS011;37075;44.084;2.962;2023-12-28T04:31:52;2.90;;;2.17;;
50517;SDS011;37075;44.084;2.962;2023-12-28T04:34:38;3.60;;;2.08;;
50517;SDS011;37075;44.084;2.962;2023-12-28T04:37:25;4.78;;;2.58;;
50517;SDS011;37075;44.084;2.962;2023-12-28T04:40:14;6.72;;;2.42;;
50517;SDS011;37075;44.084;2.962;2023-12-28T04:43:01;11.10;;;3.20;;
50517;SDS011;37075;44.084;2.962;2023-12-28T04:45:48;2.55;;;2.00;;
50517;SDS011;37075;44.084;2.962;2023-12-28T04:48:34;3.13;;;1.60;;
50517;SDS011;37075;44.084;2.962;2023-12-28T04:51:22;2.60;;;1.63;;
50517;SDS011;37075;44.084;2.962;2023-12-28T04:54:08;3.70;;;2.33;;
50517;SDS011;37075;44.084;2.962;2023-12-28T04:56:55;4.18;;;1.67;;
50517;SDS011;37075;44.084;2.962;2023-12-28T04:59:41;4.93;;;2.20;;
50517;SDS011;37075;44.084;2.962;2023-12-28T05:02:27;2.90;;;1.67;;
50517;SDS011;37075;44.084;2.962;2023-12-28T05:05:13;6.07;;;2.22;;
50517;SDS011;37075;44.084;2.962;2023-12-28T05:07:59;2.95;;;1.95;;
50517;SDS011;37075;44.084;2.962;2023-12-28T05:10:46;3.28;;;2.03;;
50517;SDS011;37075;44.084;2.962;2023-12-28T05:13:33;5.88;;;3.28;;
50517;SDS011;37075;44.084;2.962;2023-12-28T05:16:19;3.60;;;1.95;;
50517;SDS011;37075;44.084;2.962;2023-12-28T05:19:06;3.40;;;1.55;;
50517;SDS011;37075;44.084;2.962;2023-12-28T05:21:53;1.98;;;1.20;;
50517;SDS011;37075;44.084;2.962;2023-12-28T05:24:39;5.13;;;2.47;;
50517;SDS011;37075;44.084;2.962;2023-12-28T05:27:25;6.10;;;3.63;;
50517;SDS011;37075;44.084;2.962;2023-12-28T05:30:12;7.10;;;3.20;;
50517;SDS011;37075;44.084;2.962;2023-12-28T05:32:58;3.13;;;1.70;;
50517;SDS011;37075;44.084;2.962;2023-12-28T05:35:44;2.90;;;2.15;;
50517;SDS011;37075;44.084;2.962;2023-12-28T05:38:30;3.75;;;2.10;;
50517;SDS011;37075;44.084;2.962;2023-12-28T05:41:16;4.03;;;1.95;;
50517;SDS011;37075;44.084;2.962;2023-12-28T05:44:03;5.95;;;2.03;;
50517;SDS011;37075;44.084;2.962;2023-12-28T05:46:50;14.88;;;3.60;;
50517;SDS011;37075;44.084;2.962;2023-12-28T05:49:37;5.80;;;2.13;;
50517;SDS011;37075;44.084;2.962;2023-12-28T05:52:23;5.43;;;2.10;;
50517;SDS011;37075;44.084;2.962;2023-12-28T05:55:08;4.03;;;1.88;;
50517;SDS011;37075;44.084;2.962;2023-12-28T05:57:54;7.40;;;1.88;;
50517;SDS011;37075;44.084;2.962;2023-12-28T06:00:41;5.40;;;3.08;;
50517;SDS011;37075;44.084;2.962;2023-12-28T06:03:28;2.53;;;1.65;;
50517;SDS011;37075;44.084;2.962;2023-12-28T06:06:14;4.90;;;1.80;;
50517;SDS011;37075;44.084;2.962;2023-12-28T06:09:01;5.13;;;1.77;;
50517;SDS011;37075;44.084;2.962;2023-12-28T06:11:48;2.83;;;1.42;;
50517;SDS011;37075;44.084;2.962;2023-12-28T06:14:34;2.85;;;1.75;;
50517;SDS011;37075;44.084;2.962;2023-12-28T06:17:19;2.58;;;1.50;;
50517;SDS011;37075;44.084;2.962;2023-12-28T06:20:07;3.30;;;1.80;;
50517;SDS011;37075;44.084;2.962;2023-12-28T06:22:54;1.67;;;1.13;;
50517;SDS011;37075;44.084;2.962;2023-12-28T06:25:39;3.20;;;1.55;;
50517;SDS011;37075;44.084;2.962;2023-12-28T06:28:26;2.35;;;1.13;;
50517;SDS011;37075;44.084;2.962;2023-12-28T06:31:12;6.57;;;1.88;;
50517;SDS011;37075;44.084;2.962;2023-12-28T06:33:58;2.40;;;1.55;;
50517;SDS011;37075;44.084;2.962;2023-12-28T06:36:45;2.60;;;1.63;;
50517;SDS011;37075;44.084;2.962;2023-12-28T06:39:31;13.32;;;6.63;;
50517;SDS011;37075;44.084;2.962;2023-12-28T06:42:17;11.48;;;3.95;;
50517;SDS011;37075;44.084;2.962;2023-12-28T06:45:04;2.72;;;1.60;;
50517;SDS011;37075;44.084;2.962;2023-12-28T06:47:50;6.07;;;1.65;;
50517;SDS011;37075;44.084;2.962;2023-12-28T06:50:36;4.03;;;1.52;;
50517;SDS011;37075;44.084;2.962;2023-12-28T06:53:24;3.03;;;1.30;;
50517;SDS011;37075;44.084;2.962;2023-12-28T06:56:10;3.20;;;1.52;;
50517;SDS011;37075;44.084;2.962;2023-12-28T06:58:56;3.08;;;2.05;;
50517;SDS011;37075;44.084;2.962;2023-12-28T07:01:42;4.35;;;2.83;;
50517;SDS011;37075;44.084;2.962;2023-12-28T07:04:30;3.90;;;2.42;;
50517;SDS011;37075;44.084;2.962;2023-12-28T07:07:17;7.47;;;2.43;;
50517;SDS011;37075;44.084;2.962;2023-12-28T07:10:05;2.70;;;2.10;;
50517;SDS011;37075;44.084;2.962;2023-12-28T07:12:52;11.30;;;2.22;;
50517;SDS011;37075;44.084;2.962;2023-12-28T07:15:38;3.95;;;2.05;;
50517;SDS011;37075;44.084;2.962;2023-12-28T07:18:23;2.28;;;1.65;;
50517;SDS011;37075;44.084;2.962;2023-12-28T07:21:09;5.53;;;2.13;;
50517;SDS011;37075;44.084;2.962;2023-12-28T07:23:55;4.07;;;1.80;;
50517;SDS011;37075;44.084;2.962;2023-12-28T07:26:43;2.15;;;1.55;;
50517;SDS011;37075;44.084;2.962;2023-12-28T07:29:29;3.72;;;1.45;;
50517;SDS011;37075;44.084;2.962;2023-12-28T07:32:14;3.75;;;2.60;;
50517;SDS011;37075;44.084;2.962;2023-12-28T07:35:01;4.43;;;1.88;;
50517;SDS011;37075;44.084;2.962;2023-12-28T07:37:49;8.48;;;4.97;;
50517;SDS011;37075;44.084;2.962;2023-12-28T07:40:35;11.00;;;5.95;;
50517;SDS011;37075;44.084;2.962;2023-12-28T07:43:22;5.90;;;4.07;;
50517;SDS011;37075;44.084;2.962;2023-12-28T07:46:08;5.85;;;3.33;;
50517;SDS011;37075;44.084;2.962;2023-12-28T07:48:54;7.90;;;3.85;;
50517;SDS011;37075;44.084;2.962;2023-12-28T07:51:41;9.00;;;4.60;;
50517;SDS011;37075;44.084;2.962;2023-12-28T07:54:27;12.77;;;7.55;;
50517;SDS011;37075;44.084;2.962;2023-12-28T07:57:13;9.32;;;5.88;;
50517;SDS011;37075;44.084;2.962;2023-12-28T08:00:00;9.07;;;4.65;;
50517;SDS011;37075;44.084;2.962;2023-12-28T08:02:48;5.72;;;2.83;;
50517;SDS011;37075;44.084;2.962;2023-12-28T08:05:34;5.47;;;2.35;;
50517;SDS011;37075;44.084;2.962;2023-12-28T08:08:20;6.10;;;2.67;;
50517;SDS011;37075;44.084;2.962;2023-12-28T08:11:06;4.20;;;2.67;;
50517;SDS011;37075;44.084;2.962;2023-12-28T08:13:52;5.75;;;2.80;;
50517;SDS011;37075;44.084;2.962;2023-12-28T08:16:39;4.07;;;1.83;;
50517;SDS011;37075;44.084;2.962;2023-12-28T08:19:26;1.52;;;1.38;;
50517;SDS011;37075;44.084;2.962;2023-12-28T08:22:12;5.03;;;2.95;;
50517;SDS011;37075;44.084;2.962;2023-12-28T08:24:57;4.75;;;2.28;;
50517;SDS011;37075;44.084;2.962;2023-12-28T08:27:43;4.13;;;2.03;;
50517;SDS011;37075;44.084;2.962;2023-12-28T08:30:29;3.35;;;1.85;;
50517;SDS011;37075;44.084;2.962;2023-12-28T08:33:17;3.50;;;2.45;;
50517;SDS011;37075;44.084;2.962;2023-12-28T08:36:03;5.95;;;2.22;;
50517;SDS011;37075;44.084;2.962;2023-12-28T08:38:49;3.60;;;2.05;;
50517;SDS011;37075;44.084;2.962;2023-12-28T08:41:35;3.50;;;2.13;;
50517;SDS011;37075;44.084;2.962;2023-12-28T08:44:21;4.03;;;2.22;;
50517;SDS011;37075;44.084;2.962;2023-12-28T08:47:07;4.22;;;2.15;;
50517;SDS011;37075;44.084;2.962;2023-12-28T08:49:55;2.92;;;1.95;;
50517;SDS011;37075;44.084;2.962;2023-12-28T08:52:41;3.57;;;2.27;;
50517;SDS011;37075;44.084;2.962;2023-12-28T08:55:26;3.33;;;1.88;;
50517;SDS011;37075;44.084;2.962;2023-12-28T08:58:13;3.97;;;1.90;;
50517;SDS011;37075;44.084;2.962;2023-12-28T09:00:59;5.88;;;3.83;;
50517;SDS011;37075;44.084;2.962;2023-12-28T09:03:45;4.55;;;2.22;;
50517;SDS011;37075;44.084;2.962;2023-12-28T09:06:32;2.17;;;1.42;;
50517;SDS011;37075;44.084;2.962;2023-12-28T09:09:20;5.60;;;1.77;;
50517;SDS011;37075;44.084;2.962;2023-12-28T09:12:06;4.43;;;1.85;;
50517;SDS011;37075;44.084;2.962;2023-12-28T09:14:52;2.80;;;1.60;;
50517;SDS011;37075;44.084;2.962;2023-12-28T09:17:38;4.68;;;2.42;;
50517;SDS011;37075;44.084;2.962;2023-12-28T09:20:24;2.78;;;2.20;;
50517;SDS011;37075;44.084;2.962;2023-12-28T09:23:12;2.63;;;1.60;;
50517;SDS011;37075;44.084;2.962;2023-12-28T09:25:58;3.97;;;2.22;;
50517;SDS011;37075;44.084;2.962;2023-12-28T09:28:45;1.73;;;1.63;;
50517;SDS011;37075;44.084;2.962;2023-12-28T09:31:31;3.88;;;2.38;;
50517;SDS011;37075;44.084;2.962;2023-12-28T09:34:17;5.07;;;1.65;;
50517;SDS011;37075;44.084;2.962;2023-12-28T09:37:03;3.35;;;2.17;;
50517;SDS011;37075;44.084;2.962;2023-12-28T09:39:50;8.07;;;3.88;;
50517;SDS011;37075;44.084;2.962;2023-12-28T09:42:38;7.97;;;4.18;;
50517;SDS011;37075;44.084;2.962;2023-12-28T09:45:30;7.78;;;3.45;;
50517;SDS011;37075;44.084;2.962;2023-12-28T09:48:17;4.95;;;2.97;;
50517;SDS011;37075;44.084;2.962;2023-12-28T09:51:04;7.13;;;3.78;;
50517;SDS011;37075;44.084;2.962;2023-12-28T09:53:50;7.40;;;3.30;;
50517;SDS011;37075;44.084;2.962;2023-12-28T09:56:38;10.10;;;3.80;;
50517;SDS011;37075;44.084;2.962;2023-12-28T09:59:26;4.78;;;2.28;;
50517;SDS011;37075;44.084;2.962;2023-12-28T10:02:12;4.53;;;2.88;;
50517;SDS011;37075;44.084;2.962;2023-12-28T10:05:00;5.88;;;2.55;;
50517;SDS011;37075;44.084;2.962;2023-12-28T10:07:47;3.92;;;2.38;;
50517;SDS011;37075;44.084;2.962;2023-12-28T10:10:33;2.40;;;1.90;;
50517;SDS011;37075;44.084;2.962;2023-12-28T10:13:20;4.40;;;2.13;;
50517;SDS011;37075;44.084;2.962;2023-12-28T10:16:07;3.45;;;2.45;;
50517;SDS011;37075;44.084;2.962;2023-12-28T10:18:55;3.55;;;1.77;;
50517;SDS011;37075;44.084;2.962;2023-12-28T10:21:42;2.65;;;1.23;;
50517;SDS011;37075;44.084;2.962;2023-12-28T10:24:29;2.70;;;1.30;;
50517;SDS011;37075;44.084;2.962;2023-12-28T10:27:15;4.68;;;2.65;;
50517;SDS011;37075;44.084;2.962;2023-12-28T10:30:03;4.05;;;2.30;;
50517;SDS011;37075;44.084;2.962;2023-12-28T10:32:50;8.60;;;1.65;;
50517;SDS011;37075;44.084;2.962;2023-12-28T10:35:36;4.07;;;1.00;;
50517;SDS011;37075;44.084;2.962;2023-12-28T10:38:22;1.90;;;1.25;;
50517;SDS011;37075;44.084;2.962;2023-12-28T10:41:11;1.65;;;0.98;;
50517;SDS011;37075;44.084;2.962;2023-12-28T10:44:00;1.48;;;1.25;;
50517;SDS011;37075;44.084;2.962;2023-12-28T10:46:50;1.70;;;0.85;;
50517;SDS011;37075;44.084;2.962;2023-12-28T10:49:41;2.05;;;1.23;;
50517;SDS011;37075;44.084;2.962;2023-12-28T10:52:29;6.40;;;1.23;;
50517;SDS011;37075;44.084;2.962;2023-12-28T10:55:21;4.13;;;1.13;;
50517;SDS011;37075;44.084;2.962;2023-12-28T10:58:16;1.38;;;0.70;;
50517;SDS011;37075;44.084;2.962;2023-12-28T11:01:08;0.70;;;0.55;;
50517;SDS011;37075;44.084;2.962;2023-12-28T11:04:01;1.55;;;0.63;;
50517;SDS011;37075;44.084;2.962;2023-12-28T11:06:52;1.80;;;1.35;;
50517;SDS011;37075;44.084;2.962;2023-12-28T11:09:40;1.50;;;1.02;;
50517;SDS011;37075;44.084;2.962;2023-12-28T11:12:27;0.93;;;0.70;;
50517;SDS011;37075;44.084;2.962;2023-12-28T11:15:15;1.02;;;0.90;;
50517;SDS011;37075;44.084;2.962;2023-12-28T11:18:03;1.17;;;1.02;;
50517;SDS011;37075;44.084;2.962;2023-12-28T11:20:50;2.70;;;1.27;;
50517;SDS011;37075;44.084;2.962;2023-12-28T11:23:38;2.03;;;1.13;;
50517;SDS011;37075;44.084;2.962;2023-12-28T11:26:24;1.17;;;0.80;;
50517;SDS011;37075;44.084;2.962;2023-12-28T11:29:10;0.95;;;0.88;;
50517;SDS011;37075;44.084;2.962;2023-12-28T11:31:58;1.30;;;0.90;;
50517;SDS011;37075;44.084;2.962;2023-12-28T11:34:45;2.55;;;1.10;;
50517;SDS011;37075;44.084;2.962;2023-12-28T11:37:32;1.33;;;0.80;;
50517;SDS011;37075;44.084;2.962;2023-12-28T11:40:20;2.83;;;1.27;;
50517;SDS011;37075;44.084;2.962;2023-12-28T11:43:14;1.08;;;0.93;;
50517;SDS011;37075;44.084;2.962;2023-12-28T11:46:02;4.68;;;1.45;;
50517;SDS011;37075;44.084;2.962;2023-12-28T11:48:50;1.73;;;0.68;;
50517;SDS011;37075;44.084;2.962;2023-12-28T11:51:37;1.10;;;0.70;;
50517;SDS011;37075;44.084;2.962;2023-12-28T11:54:26;4.25;;;1.55;;
50517;SDS011;37075;44.084;2.962;2023-12-28T11:57:13;2.20;;;1.08;;
50517;SDS011;37075;44.084;2.962;2023-12-28T12:00:01;1.70;;;1.13;;
50517;SDS011;37075;44.084;2.962;2023-12-28T12:02:49;4.40;;;1.45;;
50517;SDS011;37075;44.084;2.962;2023-12-28T12:05:35;3.55;;;1.38;;
50517;SDS011;37075;44.084;2.962;2023-12-28T12:08:21;2.08;;;1.27;;
50517;SDS011;37075;44.084;2.962;2023-12-28T12:11:09;1.08;;;0.98;;
50517;SDS011;37075;44.084;2.962;2023-12-28T12:13:55;1.52;;;0.85;;
50517;SDS011;37075;44.084;2.962;2023-12-28T12:16:41;1.80;;;1.20;;
50517;SDS011;37075;44.084;2.962;2023-12-28T12:19:28;1.60;;;0.60;;
50517;SDS011;37075;44.084;2.962;2023-12-28T12:22:15;1.17;;;0.70;;
50517;SDS011;37075;44.084;2.962;2023-12-28T12:25:02;1.95;;;0.85;;
50517;SDS011;37075;44.084;2.962;2023-12-28T12:27:52;1.70;;;0.75;;
50517;SDS011;37075;44.084;2.962;2023-12-28T12:30:38;1.35;;;0.93;;
50517;SDS011;37075;44.084;2.962;2023-12-28T12:33:24;3.38;;;1.30;;
50517;SDS011;37075;44.084;2.962;2023-12-28T12:36:12;2.25;;;1.20;;
50517;SDS011;37075;44.084;2.962;2023-12-28T12:38:58;1.63;;;0.98;;
50517;SDS011;37075;44.084;2.962;2023-12-28T12:41:45;0.68;;;0.68;;
50517;SDS011;37075;44.084;2.962;2023-12-28T12:44:33;2.05;;;0.75;;
50517;SDS011;37075;44.084;2.962;2023-12-28T12:47:19;3.17;;;1.38;;
50517;SDS011;37075;44.084;2.962;2023-12-28T12:50:06;1.52;;;0.82;;
50517;SDS011;37075;44.084;2.962;2023-12-28T12:52:53;2.97;;;1.38;;
50517;SDS011;37075;44.084;2.962;2023-12-28T12:55:38;2.03;;;1.02;;
50517;SDS011;37075;44.084;2.962;2023-12-28T13:01:16;1.15;;;0.98;;
50517;SDS011;37075;44.084;2.962;2023-12-28T13:06:48;1.52;;;0.88;;
50517;SDS011;37075;44.084;2.962;2023-12-28T13:09:35;1.02;;;0.60;;
50517;SDS011;37075;44.084;2.962;2023-12-28T13:12:21;6.50;;;1.20;;
50517;SDS011;37075;44.084;2.962;2023-12-28T13:15:08;1.50;;;0.77;;
50517;SDS011;37075;44.084;2.962;2023-12-28T13:17:56;1.42;;;0.98;;
50517;SDS011;37075;44.084;2.962;2023-12-28T13:20:42;1.58;;;1.10;;
50517;SDS011;37075;44.084;2.962;2023-12-28T13:23:30;2.40;;;1.42;;
50517;SDS011;37075;44.084;2.962;2023-12-28T13:26:16;2.72;;;0.90;;
50517;SDS011;37075;44.084;2.962;2023-12-28T13:29:02;10.25;;;1.13;;
50517;SDS011;37075;44.084;2.962;2023-12-28T13:31:48;1.00;;;0.55;;
50517;SDS011;37075;44.084;2.962;2023-12-28T13:34:36;2.03;;;0.68;;
50517;SDS011;37075;44.084;2.962;2023-12-28T13:37:22;2.03;;;0.80;;
50517;SDS011;37075;44.084;2.962;2023-12-28T13:40:08;1.65;;;0.80;;
50517;SDS011;37075;44.084;2.962;2023-12-28T13:42:55;3.30;;;0.90;;
50517;SDS011;37075;44.084;2.962;2023-12-28T13:45:41;2.60;;;1.38;;
50517;SDS011;37075;44.084;2.962;2023-12-28T13:48:27;2.13;;;1.00;;
50517;SDS011;37075;44.084;2.962;2023-12-28T13:51:14;1.70;;;0.85;;
50517;SDS011;37075;44.084;2.962;2023-12-28T13:54:00;3.08;;;1.40;;
50517;SDS011;37075;44.084;2.962;2023-12-28T13:56:47;10.25;;;1.85;;
50517;SDS011;37075;44.084;2.962;2023-12-28T13:59:33;3.70;;;1.40;;
50517;SDS011;37075;44.084;2.962;2023-12-28T14:02:19;1.80;;;1.05;;
50517;SDS011;37075;44.084;2.962;2023-12-28T14:05:06;1.85;;;1.63;;
50517;SDS011;37075;44.084;2.962;2023-12-28T14:07:53;2.08;;;1.33;;
50517;SDS011;37075;44.084;2.962;2023-12-28T14:10:39;3.70;;;0.80;;
50517;SDS011;37075;44.084;2.962;2023-12-28T14:13:26;1.85;;;1.58;;
50517;SDS011;37075;44.084;2.962;2023-12-28T14:16:12;2.65;;;1.50;;
50517;SDS011;37075;44.084;2.962;2023-12-28T14:18:58;1.77;;;1.02;;
50517;SDS011;37075;44.084;2.962;2023-12-28T14:21:44;3.13;;;1.13;;
50517;SDS011;37075;44.084;2.962;2023-12-28T14:24:32;2.92;;;1.45;;
50517;SDS011;37075;44.084;2.962;2023-12-28T14:30:05;1.58;;;0.57;;
50517;SDS011;37075;44.084;2.962;2023-12-28T14:32:54;9.82;;;1.65;;
50517;SDS011;37075;44.084;2.962;2023-12-28T14:35:41;2.13;;;0.88;;
50517;SDS011;37075;44.084;2.962;2023-12-28T14:38:27;0.75;;;0.73;;
50517;SDS011;37075;44.084;2.962;2023-12-28T14:41:14;0.65;;;0.55;;
50517;SDS011;37075;44.084;2.962;2023-12-28T14:44:00;4.80;;;1.92;;
50517;SDS011;37075;44.084;2.962;2023-12-28T14:46:46;1.40;;;0.82;;
50517;SDS011;37075;44.084;2.962;2023-12-28T14:49:32;3.45;;;0.82;;
50517;SDS011;37075;44.084;2.962;2023-12-28T14:52:18;2.05;;;1.10;;
50517;SDS011;37075;44.084;2.962;2023-12-28T14:55:04;1.73;;;0.80;;
50517;SDS011;37075;44.084;2.962;2023-12-28T14:57:52;1.85;;;0.90;;
50517;SDS011;37075;44.084;2.962;2023-12-28T15:00:38;2.20;;;1.30;;
50517;SDS011;37075;44.084;2.962;2023-12-28T15:03:24;0.88;;;0.77;;
50517;SDS011;37075;44.084;2.962;2023-12-28T15:06:10;2.45;;;0.98;;
50517;SDS011;37075;44.084;2.962;2023-12-28T15:08:56;2.70;;;1.08;;
50517;SDS011;37075;44.084;2.962;2023-12-28T15:11:42;4.10;;;1.50;;
50517;SDS011;37075;44.084;2.962;2023-12-28T15:14:29;2.92;;;1.20;;
50517;SDS011;37075;44.084;2.962;2023-12-28T15:20:02;1.05;;;0.70;;
50517;SDS011;37075;44.084;2.962;2023-12-28T15:22:48;1.52;;;0.77;;
50517;SDS011;37075;44.084;2.962;2023-12-28T15:25:35;3.15;;;2.00;;
50517;SDS011;37075;44.084;2.962;2023-12-28T15:28:20;1.45;;;1.20;;
50517;SDS011;37075;44.084;2.962;2023-12-28T15:31:09;1.95;;;1.40;;
50517;SDS011;37075;44.084;2.962;2023-12-28T15:33:55;3.40;;;1.52;;
50517;SDS011;37075;44.084;2.962;2023-12-28T15:36:41;3.38;;;1.48;;
50517;SDS011;37075;44.084;2.962;2023-12-28T15:39:27;2.83;;;1.55;;
50517;SDS011;37075;44.084;2.962;2023-12-28T15:42:13;1.90;;;0.90;;
50517;SDS011;37075;44.084;2.962;2023-12-28T15:44:59;1.33;;;0.82;;
50517;SDS011;37075;44.084;2.962;2023-12-28T15:47:46;3.72;;;1.20;;
50517;SDS011;37075;44.084;2.962;2023-12-28T15:50:32;2.97;;;1.23;;
50517;SDS011;37075;44.084;2.962;2023-12-28T15:53:18;2.03;;;1.40;;
50517;SDS011;37075;44.084;2.962;2023-12-28T15:56:05;2.88;;;1.27;;
50517;SDS011;37075;44.084;2.962;2023-12-28T15:58:51;1.83;;;1.23;;
50517;SDS011;37075;44.084;2.962;2023-12-28T16:01:37;6.75;;;1.60;;
50517;SDS011;37075;44.084;2.962;2023-12-28T16:04:25;2.30;;;0.90;;
50517;SDS011;37075;44.084;2.962;2023-12-28T16:07:11;2.58;;;1.15;;
50517;SDS011;37075;44.084;2.962;2023-12-28T16:09:56;1.33;;;1.15;;
50517;SDS011;37075;44.084;2.962;2023-12-28T16:12:42;3.25;;;1.08;;
50517;SDS011;37075;44.084;2.962;2023-12-28T16:15:28;1.55;;;0.68;;
50517;SDS011;37075;44.084;2.962;2023-12-28T16:18:15;1.88;;;1.17;;
50517;SDS011;37075;44.084;2.962;2023-12-28T16:21:03;13.50;;;1.92;;
50517;SDS011;37075;44.084;2.962;2023-12-28T16:23:50;4.10;;;1.23;;
50517;SDS011;37075;44.084;2.962;2023-12-28T16:26:36;4.43;;;1.13;;
50517;SDS011;37075;44.084;2.962;2023-12-28T16:29:22;3.75;;;1.38;;
50517;SDS011;37075;44.084;2.962;2023-12-28T16:32:09;3.13;;;1.40;;
50517;SDS011;37075;44.084;2.962;2023-12-28T16:34:55;1.38;;;0.98;;
50517;SDS011;37075;44.084;2.962;2023-12-28T16:37:43;2.58;;;1.27;;
50517;SDS011;37075;44.084;2.962;2023-12-28T16:40:29;3.33;;;1.50;;
50517;SDS011;37075;44.084;2.962;2023-12-28T16:43:15;2.30;;;1.27;;
50517;SDS011;37075;44.084;2.962;2023-12-28T16:46:01;1.60;;;0.90;;
50517;SDS011;37075;44.084;2.962;2023-12-28T16:48:47;3.35;;;0.80;;
50517;SDS011;37075;44.084;2.962;2023-12-28T16:51:33;1.25;;;0.77;;
50517;SDS011;37075;44.084;2.962;2023-12-28T16:54:20;3.80;;;1.25;;
50517;SDS011;37075;44.084;2.962;2023-12-28T16:57:06;10.15;;;1.73;;
50517;SDS011;37075;44.084;2.962;2023-12-28T16:59:53;2.22;;;1.42;;
50517;SDS011;37075;44.084;2.962;2023-12-28T17:02:39;2.67;;;1.27;;